Time;durP1;ratioP1;P1;durP2;ratioP2;P2;SDS_P1;SDS_P2;PMS_P1;PMS_P2;Temp;Humidity;BMP_temperature;BMP_pressure;BME280_temperature;BME280_humidity;BME280_pressure;Samples;Min_cycle;Max_cycle;Signal;HPM_P1;HPM_P2
2021/12/21 10:21:45;;;;;;;17.75;6.80;;;;;;;;;;5153182;27;1183579;-88
2021/12/21 10:24:21;;;;;;;13.18;6.82;;;;;;;;;;5138599;27;20055;-89
2021/12/21 10:26:47;;;;;;;15.77;7.10;;;;;;;;;;5133301;27;20389;-87
2021/12/21 10:29:15;;;;;;;16.40;6.55;;;;;;;;;;5151848;27;20039;-87
2021/12/21 10:31:45;;;;;;;11.38;6.40;;;;;;;;;;5133480;27;20525;-89
2021/12/21 10:34:12;;;;;;;14.43;6.80;;;;;;;;;;5133243;27;20120;-88
2021/12/21 10:36:42;;;;;;;13.63;7.47;;;;;;;;;;5133223;27;20038;-88
2021/12/21 10:39:08;;;;;;;12.05;6.97;;;;;;;;;;5151817;27;20035;-87
2021/12/21 10:41:38;;;;;;;15.10;7.20;;;;;;;;;;5133035;27;20047;-88
2021/12/21 10:44:14;;;;;;;14.55;7.20;;;;;;;;;;5115734;27;20046;-88
2021/12/21 10:46:41;;;;;;;13.30;7.65;;;;;;;;;;5133079;27;20073;-89
2021/12/21 10:49:12;;;;;;;12.88;7.13;;;;;;;;;;5132842;27;20478;-87
2021/12/21 10:51:38;;;;;;;13.10;6.82;;;;;;;;;;5151122;27;20577;-88
2021/12/21 10:54:04;;;;;;;15.43;7.40;;;;;;;;;;5115976;27;20070;-87
2021/12/21 10:56:30;;;;;;;13.93;7.57;;;;;;;;;;5151100;27;20071;-88
2021/12/21 10:58:56;;;;;;;17.17;6.78;;;;;;;;;;5151381;27;20151;-87
2021/12/21 11:01:27;;;;;;;12.88;6.93;;;;;;;;;;5132353;27;20043;-87
2021/12/21 11:03:55;;;;;;;14.85;6.55;;;;;;;;;;5132915;27;20074;-88
2021/12/21 11:06:27;;;;;;;12.35;6.88;;;;;;;;;;5132202;27;20043;-87
2021/12/21 11:08:54;;;;;;;13.98;6.90;;;;;;;;;;5132792;27;20039;-87
2021/12/21 11:11:22;;;;;;;15.18;6.93;;;;;;;;;;5132543;27;20042;-87
2021/12/21 11:13:58;;;;;;;15.07;7.00;;;;;;;;;;5115232;27;20049;-88
2021/12/21 11:16:31;;;;;;;13.00;6.50;;;;;;;;;;5132351;27;20043;-87
2021/12/21 11:18:57;;;;;;;16.23;7.28;;;;;;;;;;5132584;27;20450;-88
2021/12/21 11:21:23;;;;;;;14.35;7.13;;;;;;;;;;5150341;27;20126;-88
2021/12/21 11:23:49;;;;;;;15.07;6.82;;;;;;;;;;5115438;27;20134;-87
2021/12/21 11:26:16;;;;;;;15.07;6.90;;;;;;;;;;5132188;27;20068;-87
2021/12/21 11:28:42;;;;;;;14.20;6.97;;;;;;;;;;5132224;27;20437;-89
2021/12/21 11:31:09;;;;;;;12.35;6.88;;;;;;;;;;5147137;27;20508;-87
2021/12/21 11:33:44;;;;;;;17.50;7.00;;;;;;;;;;5118382;27;20051;-87
2021/12/21 11:38:57;;;;;;;15.02;6.32;;;;;;;;;;5136854;27;20073;-87
2021/12/21 11:41:23;;;;;;;11.32;5.80;;;;;;;;;;5101032;27;20046;-88
2021/12/21 11:43:54;;;;;;;12.95;6.20;;;;;;;;;;5118022;27;20114;-88
2021/12/21 11:46:26;;;;;;;15.50;7.13;;;;;;;;;;5136751;27;20039;-86
2021/12/21 11:48:59;;;;;;;17.27;6.63;;;;;;;;;;5136618;27;20039;-87
2021/12/21 11:51:27;;;;;;;16.95;6.70;;;;;;;;;;5118328;27;20096;-89
2021/12/21 11:53:53;;;;;;;13.20;6.00;;;;;;;;;;5136118;27;20479;-86
2021/12/21 11:56:21;;;;;;;12.93;6.72;;;;;;;;;;5117910;27;20066;-87
2021/12/21 11:58:49;;;;;;;13.60;6.93;;;;;;;;;;5136231;27;20047;-86
2021/12/21 12:01:19;;;;;;;12.05;6.03;;;;;;;;;;5136464;27;20035;-88
2021/12/21 12:03:58;;;;;;;14.30;6.22;;;;;;;;;;5136437;27;20046;-87
2021/12/21 12:06:24;;;;;;;13.93;6.63;;;;;;;;;;5117904;27;20101;-88
2021/12/21 12:08:58;;;;;;;11.65;6.75;;;;;;;;;;5117698;27;20031;-87
2021/12/21 12:11:24;;;;;;;13.90;6.60;;;;;;;;;;5136042;27;20031;-86
2021/12/21 12:13:51;;;;;;;13.05;5.85;;;;;;;;;;5117465;27;20062;-86
2021/12/21 12:16:17;;;;;;;13.43;6.53;;;;;;;;;;5139554;27;20035;-88
2021/12/21 12:18:47;;;;;;;11.10;6.43;;;;;;;;;;5136256;27;20368;-88
2021/12/21 12:21:18;;;;;;;12.30;6.80;;;;;;;;;;5135616;27;20062;-88
2021/12/21 12:23:47;;;;;;;16.60;6.85;;;;;;;;;;5135517;27;20332;-88
2021/12/21 12:26:28;;;;;;;12.48;6.47;;;;;;;;;;5117341;27;20034;-86
2021/12/21 12:28:58;;;;;;;16.27;6.53;;;;;;;;;;5117351;27;20435;-87
2021/12/21 12:31:28;;;;;;;12.07;6.60;;;;;;;;;;5135553;27;20367;-89
2021/12/21 12:33:54;;;;;;;13.73;6.60;;;;;;;;;;5116994;27;20054;-87
2021/12/21 12:36:32;;;;;;;14.20;6.47;;;;;;;;;;5117186;27;20043;-86
2021/12/21 12:38:58;;;;;;;13.38;7.32;;;;;;;;;;5116989;27;20039;-88
2021/12/21 12:41:23;;;;;;;12.50;7.22;;;;;;;;;;5135555;27;20092;-87
2021/12/21 12:43:49;;;;;;;12.85;6.30;;;;;;;;;;5116021;27;20050;-87
2021/12/21 12:46:23;;;;;;;12.63;7.00;;;;;;;;;;5135593;27;20043;-89
2021/12/21 12:48:49;;;;;;;10.43;6.80;;;;;;;;;;5117069;27;20035;-88
2021/12/21 12:51:33;;;;;;;15.68;6.78;;;;;;;;;;5116873;27;20122;-88
2021/12/21 12:53:59;;;;;;;15.50;7.43;;;;;;;;;;5135207;27;20035;-86
2021/12/21 12:56:26;;;;;;;14.82;6.63;;;;;;;;;;5116787;27;20443;-88
2021/12/21 12:58:57;;;;;;;13.75;6.78;;;;;;;;;;5134940;27;20087;-85
2021/12/21 13:01:26;;;;;;;13.55;6.53;;;;;;;;;;5116740;27;20058;-87
2021/12/21 13:03:58;;;;;;;12.18;6.18;;;;;;;;;;5099424;27;20039;-88
2021/12/21 13:06:29;;;;;;;11.05;6.28;;;;;;;;;;5116596;27;20394;-87
2021/12/21 13:08:55;;;;;;;11.07;6.22;;;;;;;;;;5116606;27;20040;-90
2021/12/21 13:11:22;;;;;;;10.45;6.10;;;;;;;;;;5134659;27;20490;-88
2021/12/21 13:13:49;;;;;;;14.10;6.00;;;;;;;;;;5134666;27;20075;-87
2021/12/21 13:16:19;;;;;;;13.95;6.65;;;;;;;;;;5116400;27;20047;-87
2021/12/21 13:18:45;;;;;;;13.45;7.07;;;;;;;;;;5134798;27;20367;-87
2021/12/21 13:21:18;;;;;;;14.52;7.28;;;;;;;;;;5134479;27;20051;-85
2021/12/21 13:23:47;;;;;;;13.60;6.28;;;;;;;;;;5134410;27;20084;-87
2021/12/21 13:26:13;;;;;;;14.18;6.80;;;;;;;;;;5116252;27;20046;-84
2021/12/21 13:28:50;;;;;;;11.23;6.40;;;;;;;;;;5116344;27;20393;-85
2021/12/21 13:31:17;;;;;;;15.45;7.20;;;;;;;;;;5116024;27;20043;-87
2021/12/21 13:33:43;;;;;;;11.60;6.20;;;;;;;;;;5115855;27;20050;-85
2021/12/21 13:36:09;;;;;;;12.57;6.28;;;;;;;;;;5134343;27;20039;-85
2021/12/21 13:38:37;;;;;;;12.30;5.97;;;;;;;;;;5134301;27;20035;-85
2021/12/21 13:41:07;;;;;;;10.80;5.85;;;;;;;;;;5115896;27;20417;-86
2021/12/21 13:43:34;;;;;;;13.35;7.05;;;;;;;;;;5115855;27;20136;-87
2021/12/21 13:46:01;;;;;;;11.55;6.13;;;;;;;;;;5115777;27;20490;-86
2021/12/21 13:48:31;;;;;;;14.20;6.57;;;;;;;;;;5115908;27;20050;-85
2021/12/21 13:51:11;;;;;;;22.50;6.97;;;;;;;;;;5134078;27;20043;-87
2021/12/21 13:53:44;;;;;;;13.00;6.65;;;;;;;;;;5115522;27;20054;-87
2021/12/21 13:56:11;;;;;;;13.57;6.07;;;;;;;;;;5115491;27;20043;-88
2021/12/21 13:58:37;;;;;;;16.45;7.07;;;;;;;;;;5115755;27;20330;-88
2021/12/21 14:01:03;;;;;;;14.05;6.50;;;;;;;;;;5115582;27;20119;-87
2021/12/21 14:03:37;;;;;;;16.60;5.95;;;;;;;;;;5133879;27;20057;-85
2021/12/21 14:06:13;;;;;;;14.43;6.30;;;;;;;;;;5134279;27;20107;-86
2021/12/21 14:08:42;;;;;;;13.88;7.03;;;;;;;;;;5098506;27;20057;-86
2021/12/21 14:11:11;;;;;;;14.55;6.28;;;;;;;;;;5115776;28;20413;-87
2021/12/21 14:13:42;;;;;;;13.43;6.00;;;;;;;;;;5115541;28;20039;-88
2021/12/21 14:16:09;;;;;;;11.63;6.13;;;;;;;;;;5115564;28;20057;-88
2021/12/21 14:18:38;;;;;;;9.82;6.05;;;;;;;;;;5115153;28;20043;-87
2021/12/21 14:21:11;;;;;;;14.48;6.72;;;;;;;;;;5115186;28;20375;-87
2021/12/21 14:23:40;;;;;;;11.93;6.70;;;;;;;;;;5115407;28;20390;-86
2021/12/21 14:26:07;;;;;;;11.43;5.95;;;;;;;;;;5115249;28;20035;-86
2021/12/21 14:28:43;;;;;;;11.57;6.68;;;;;;;;;;5119589;27;20490;-85
2021/12/21 14:31:09;;;;;;;15.68;7.88;;;;;;;;;;5115389;28;20043;-86
2021/12/21 14:33:46;;;;;;;13.38;7.95;;;;;;;;;;5115005;28;20179;-85
2021/12/21 14:36:15;;;;;;;20.15;7.97;;;;;;;;;;5133828;27;20043;-87
2021/12/21 14:38:50;;;;;;;14.68;8.32;;;;;;;;;;5133762;28;20045;-86
2021/12/21 14:41:36;;;;;;;16.88;8.20;;;;;;;;;;5115283;28;20043;-86
2021/12/21 14:44:20;;;;;;;18.67;9.60;;;;;;;;;;5133650;28;20062;-86
2021/12/21 14:47:21;;;;;;;15.20;7.75;;;;;;;;;;5133816;28;20039;-86
2021/12/21 14:49:53;;;;;;;13.48;7.35;;;;;;;;;;5030145;28;20493;-86
2021/12/21 14:52:25;;;;;;;14.23;7.65;;;;;;;;;;5117272;28;20107;-85
2021/12/21 14:55:00;;;;;;;13.68;7.38;;;;;;;;;;5115063;28;20047;-87
2021/12/21 14:57:33;;;;;;;14.43;7.57;;;;;;;;;;5115428;28;20476;-86
2021/12/21 15:00:01;;;;;;;13.65;6.45;;;;;;;;;;5114965;28;20492;-86
2021/12/21 15:04:58;;;;;;;13.40;7.18;;;;;;;;;;5133538;28;20044;-85
2021/12/21 15:07:25;;;;;;;11.35;6.15;;;;;;;;;;5135679;27;20047;-85
2021/12/21 15:09:51;;;;;;;10.90;6.32;;;;;;;;;;5101709;27;20047;-87
2021/12/21 15:12:18;;;;;;;11.15;6.47;;;;;;;;;;5137391;27;20054;-87
2021/12/21 15:14:44;;;;;;;13.57;6.97;;;;;;;;;;5118562;27;20070;-87
2021/12/21 15:17:10;;;;;;;14.30;7.60;;;;;;;;;;5137325;27;20096;-85
2021/12/21 15:19:36;;;;;;;14.50;7.18;;;;;;;;;;5136758;27;20089;-86
2021/12/21 15:22:02;;;;;;;11.35;6.22;;;;;;;;;;5137137;27;20051;-86
2021/12/21 15:24:28;;;;;;;13.18;5.60;;;;;;;;;;5118425;27;20042;-86
2021/12/21 15:26:54;;;;;;;11.77;5.60;;;;;;;;;;5118448;27;20043;-86
2021/12/21 15:29:20;;;;;;;10.93;4.75;;;;;;;;;;5118384;27;20035;-86
2021/12/21 15:31:47;;;;;;;9.38;4.72;;;;;;;;;;5101869;27;20039;-88
2021/12/21 15:34:13;;;;;;;12.73;5.43;;;;;;;;;;5118142;27;20081;-86
2021/12/21 15:36:40;;;;;;;13.25;5.72;;;;;;;;;;5118277;27;20140;-86
2021/12/21 15:39:06;;;;;;;11.15;5.95;;;;;;;;;;5136782;27;20043;-86
2021/12/21 15:41:32;;;;;;;12.10;5.97;;;;;;;;;;5136750;27;20038;-88
2021/12/21 15:43:59;;;;;;;11.05;5.43;;;;;;;;;;5136658;27;20398;-88
2021/12/21 15:46:25;;;;;;;12.15;5.90;;;;;;;;;;5136737;27;20095;-86
2021/12/21 15:48:51;;;;;;;10.70;5.35;;;;;;;;;;5118116;27;20119;-88
2021/12/21 15:51:18;;;;;;;11.82;5.80;;;;;;;;;;5136606;27;20114;-87
2021/12/21 15:53:44;;;;;;;12.63;5.68;;;;;;;;;;5118467;27;20111;-88
2021/12/21 15:56:11;;;;;;;10.88;5.45;;;;;;;;;;5136428;27;20142;-85
2021/12/21 15:58:38;;;;;;;11.88;6.00;;;;;;;;;;5117925;27;20039;-85
2021/12/21 16:01:05;;;;;;;13.25;6.90;;;;;;;;;;5136181;27;20031;-87
2021/12/21 16:03:31;;;;;;;18.00;7.65;;;;;;;;;;5136321;27;20054;-88
2021/12/21 16:05:57;;;;;;;20.80;9.30;;;;;;;;;;5117782;27;20063;-88
2021/12/21 16:08:23;;;;;;;22.88;9.13;;;;;;;;;;5117694;27;20045;-87
2021/12/21 16:10:49;;;;;;;23.05;11.52;;;;;;;;;;5135872;27;20043;-87
2021/12/21 16:13:15;;;;;;;25.20;13.23;;;;;;;;;;5117722;27;20047;-88
2021/12/21 16:15:41;;;;;;;22.15;10.52;;;;;;;;;;5117510;27;20050;-88
2021/12/21 16:18:07;;;;;;;23.45;9.88;;;;;;;;;;5117503;27;20047;-88
2021/12/21 16:20:33;;;;;;;23.17;10.48;;;;;;;;;;5117347;27;20473;-87
2021/12/21 16:22:59;;;;;;;26.20;12.10;;;;;;;;;;5117559;27;20146;-88
2021/12/21 16:25:25;;;;;;;25.75;11.50;;;;;;;;;;5117338;27;20039;-87
2021/12/21 16:27:51;;;;;;;23.05;11.52;;;;;;;;;;5117398;27;20046;-87
2021/12/21 16:30:27;;;;;;;19.90;10.98;;;;;;;;;;5100208;27;20092;-88
2021/12/21 16:32:53;;;;;;;22.95;10.80;;;;;;;;;;5135937;27;20088;-87
2021/12/21 16:35:19;;;;;;;19.15;9.88;;;;;;;;;;5135559;27;20042;-87
2021/12/21 16:37:45;;;;;;;20.83;9.38;;;;;;;;;;5140121;27;20046;-88
2021/12/21 16:40:11;;;;;;;19.45;8.68;;;;;;;;;;5117427;27;20031;-86
2021/12/21 16:42:37;;;;;;;15.05;7.65;;;;;;;;;;5116905;27;20470;-86
2021/12/21 16:45:05;;;;;;;16.23;7.57;;;;;;;;;;5117127;27;20050;-85
2021/12/21 16:47:31;;;;;;;13.77;7.13;;;;;;;;;;5135474;27;20042;-87
2021/12/21 16:49:57;;;;;;;11.30;7.38;;;;;;;;;;5135541;27;20047;-86
2021/12/21 16:52:23;;;;;;;14.32;7.53;;;;;;;;;;5116690;27;20039;-87
2021/12/21 16:54:49;;;;;;;13.73;7.55;;;;;;;;;;5116723;27;20084;-88
2021/12/21 16:57:15;;;;;;;12.95;7.88;;;;;;;;;;5135396;27;20050;-87
2021/12/21 16:59:45;;;;;;;10.88;7.22;;;;;;;;;;5135232;27;20050;-87
2021/12/21 17:02:12;;;;;;;12.80;7.28;;;;;;;;;;5116932;27;20070;-88
2021/12/21 17:04:38;;;;;;;14.95;7.70;;;;;;;;;;5134807;27;20546;-88
2021/12/21 17:07:04;;;;;;;14.35;7.80;;;;;;;;;;5135070;27;20119;-88
2021/12/21 17:09:30;;;;;;;15.10;8.05;;;;;;;;;;5116541;27;20043;-88
2021/12/21 17:11:56;;;;;;;13.93;7.95;;;;;;;;;;5116514;27;20493;-87
2021/12/21 17:14:22;;;;;;;14.52;8.38;;;;;;;;;;5135002;27;20045;-87
2021/12/21 17:16:48;;;;;;;14.32;7.38;;;;;;;;;;5116156;27;20126;-88
2021/12/21 17:19:14;;;;;;;13.75;8.07;;;;;;;;;;5134935;27;20064;-87
2021/12/21 17:21:40;;;;;;;15.10;8.13;;;;;;;;;;5134222;27;20047;-87
2021/12/21 17:24:06;;;;;;;12.35;8.00;;;;;;;;;;5116497;27;20041;-88
2021/12/21 17:26:32;;;;;;;17.10;7.45;;;;;;;;;;5116117;27;20043;-86
2021/12/21 17:28:58;;;;;;;13.75;7.63;;;;;;;;;;5134348;27;20482;-87
2021/12/21 17:31:24;;;;;;;14.80;7.32;;;;;;;;;;5116170;27;20062;-86
2021/12/21 17:33:50;;;;;;;13.73;7.40;;;;;;;;;;5116226;27;20367;-88
2021/12/21 17:36:20;;;;;;;11.02;6.97;;;;;;;;;;5134485;27;20039;-86
2021/12/21 17:38:46;;;;;;;12.18;6.78;;;;;;;;;;5099268;27;20188;-88
2021/12/21 17:41:13;;;;;;;13.60;6.97;;;;;;;;;;5115711;27;20513;-88
2021/12/21 17:43:39;;;;;;;13.43;7.63;;;;;;;;;;5134402;27;20039;-87
2021/12/21 17:46:05;;;;;;;13.00;7.53;;;;;;;;;;5115600;27;20046;-87
2021/12/21 17:48:32;;;;;;;17.25;8.40;;;;;;;;;;5115912;27;20043;-86
2021/12/21 17:50:58;;;;;;;18.10;7.90;;;;;;;;;;5115519;27;20390;-88
2021/12/21 17:53:25;;;;;;;16.65;9.07;;;;;;;;;;5134340;27;20133;-87
2021/12/21 17:55:51;;;;;;;15.60;7.95;;;;;;;;;;5115685;27;20050;-87
2021/12/21 17:58:17;;;;;;;14.27;7.72;;;;;;;;;;5115945;28;20064;-88
2021/12/21 18:00:43;;;;;;;15.13;7.00;;;;;;;;;;5098600;27;20121;-89
2021/12/21 18:03:09;;;;;;;13.70;7.28;;;;;;;;;;5115510;27;20050;-88
2021/12/21 18:05:35;;;;;;;13.23;7.50;;;;;;;;;;5115438;27;20061;-89
2021/12/21 18:08:03;;;;;;;12.73;7.00;;;;;;;;;;5115555;27;20092;-88
2021/12/21 18:10:29;;;;;;;15.23;7.50;;;;;;;;;;5133633;27;20490;-87
2021/12/21 18:12:56;;;;;;;13.02;7.18;;;;;;;;;;5115355;27;20050;-88
2021/12/21 18:15:22;;;;;;;15.82;7.90;;;;;;;;;;5082385;27;20390;-87
2021/12/21 18:17:49;;;;;;;14.32;7.93;;;;;;;;;;5133909;27;20043;-88
2021/12/21 18:20:14;;;;;;;15.07;7.47;;;;;;;;;;5115099;28;20504;-86
2021/12/21 18:22:41;;;;;;;14.20;7.43;;;;;;;;;;5115192;28;20047;-86
2021/12/21 18:25:07;;;;;;;13.43;8.02;;;;;;;;;;5115580;28;20523;-88
2021/12/21 18:27:33;;;;;;;14.43;7.18;;;;;;;;;;5133915;28;20116;-88
2021/12/21 18:30:00;;;;;;;14.25;7.28;;;;;;;;;;5134007;28;20514;-88
2021/12/21 18:32:27;;;;;;;11.88;6.95;;;;;;;;;;5133318;27;20035;-86
2021/12/21 18:34:53;;;;;;;12.80;7.03;;;;;;;;;;5115314;28;20440;-87
2021/12/21 18:37:19;;;;;;;15.10;7.53;;;;;;;;;;5115111;28;20095;-86
2021/12/21 18:39:46;;;;;;;16.35;7.90;;;;;;;;;;5133773;28;20126;-87
2021/12/21 18:42:12;;;;;;;12.73;7.90;;;;;;;;;;5117034;27;20036;-87
2021/12/21 18:44:38;;;;;;;14.43;7.28;;;;;;;;;;5119489;27;20114;-88
2021/12/21 18:47:04;;;;;;;14.88;7.75;;;;;;;;;;5119447;27;20039;-88
2021/12/21 18:49:31;;;;;;;17.08;7.68;;;;;;;;;;5123984;27;20039;-88
2021/12/21 18:51:57;;;;;;;12.65;7.43;;;;;;;;;;5119218;27;20035;-89
2021/12/21 18:54:23;;;;;;;12.55;7.88;;;;;;;;;;5137844;27;20382;-88
2021/12/21 18:56:49;;;;;;;12.90;7.50;;;;;;;;;;5137606;27;20039;-86
2021/12/21 18:59:17;;;;;;;12.00;7.38;;;;;;;;;;5119124;27;20035;-88
2021/12/21 19:01:43;;;;;;;12.15;7.93;;;;;;;;;;5118761;27;20497;-87
2021/12/21 19:04:10;;;;;;;17.90;8.18;;;;;;;;;;5119512;27;20435;-86
2021/12/21 19:06:37;;;;;;;14.23;8.30;;;;;;;;;;5137258;27;20031;-88
2021/12/21 19:09:06;;;;;;;17.45;8.13;;;;;;;;;;5137311;27;20587;-86
2021/12/21 19:11:33;;;;;;;14.18;7.78;;;;;;;;;;5101820;27;20407;-85
2021/12/21 19:13:59;;;;;;;14.90;8.07;;;;;;;;;;5118581;27;20444;-87
2021/12/21 19:16:25;;;;;;;16.05;8.77;;;;;;;;;;5118583;27;20058;-86
2021/12/21 19:18:51;;;;;;;15.00;8.02;;;;;;;;;;5137322;27;20043;-88
2021/12/21 19:21:18;;;;;;;19.38;8.88;;;;;;;;;;5118250;27;20490;-86
2021/12/21 19:23:44;;;;;;;13.20;8.15;;;;;;;;;;5136924;27;20490;-86
2021/12/21 19:26:10;;;;;;;14.07;9.10;;;;;;;;;;5118679;27;20039;-88
2021/12/21 19:28:37;;;;;;;18.13;10.10;;;;;;;;;;5118680;27;20114;-87
2021/12/21 19:31:03;;;;;;;14.73;9.27;;;;;;;;;;5137098;27;20104;-87
2021/12/21 19:33:29;;;;;;;21.65;10.13;;;;;;;;;;5136863;27;20072;-87
2021/12/21 19:35:55;;;;;;;16.20;10.18;;;;;;;;;;5118622;27;20488;-87
2021/12/21 19:38:21;;;;;;;16.67;10.88;;;;;;;;;;5118439;27;20050;-87
2021/12/21 19:40:48;;;;;;;19.08;10.75;;;;;;;;;;5136807;27;20042;-86
2021/12/21 19:43:14;;;;;;;17.30;10.30;;;;;;;;;;5136566;27;20398;-86
2021/12/21 19:45:42;;;;;;;14.30;9.63;;;;;;;;;;5136774;27;20059;-87
2021/12/21 19:48:08;;;;;;;15.95;9.95;;;;;;;;;;5136356;27;20031;-86
2021/12/21 19:50:34;;;;;;;16.80;10.30;;;;;;;;;;5118123;27;20050;-87
2021/12/21 19:53:01;;;;;;;18.02;9.73;;;;;;;;;;5117303;27;20116;-87
2021/12/21 19:55:27;;;;;;;21.38;10.52;;;;;;;;;;5118347;27;20363;-86
2021/12/21 19:57:56;;;;;;;18.40;10.07;;;;;;;;;;5136497;27;20043;-87
2021/12/21 20:00:23;;;;;;;16.25;9.60;;;;;;;;;;5118242;27;20091;-88
2021/12/21 20:02:49;;;;;;;16.27;10.02;;;;;;;;;;5136205;27;20035;-87
2021/12/21 20:05:15;;;;;;;14.40;9.93;;;;;;;;;;5117758;27;20039;-86
2021/12/21 20:07:41;;;;;;;16.63;9.85;;;;;;;;;;5117589;27;20043;-87
2021/12/21 20:10:09;;;;;;;13.88;9.43;;;;;;;;;;5117588;27;20110;-87
2021/12/21 20:12:36;;;;;;;20.55;9.70;;;;;;;;;;5136040;27;20053;-87
2021/12/21 20:15:03;;;;;;;17.95;10.25;;;;;;;;;;5117601;27;20047;-85
2021/12/21 20:17:29;;;;;;;15.15;9.60;;;;;;;;;;5135951;27;20130;-86
2021/12/21 20:19:55;;;;;;;16.05;9.65;;;;;;;;;;5117248;27;20344;-86
2021/12/21 20:22:22;;;;;;;19.75;10.60;;;;;;;;;;5100296;27;20092;-86
2021/12/21 20:24:49;;;;;;;15.70;9.43;;;;;;;;;;5117577;27;20035;-87
2021/12/21 20:27:16;;;;;;;15.05;9.63;;;;;;;;;;5135587;27;20526;-87
2021/12/21 20:29:42;;;;;;;16.77;10.27;;;;;;;;;;5117284;27;20050;-87
2021/12/21 20:32:08;;;;;;;14.20;9.82;;;;;;;;;;5100137;27;20071;-87
2021/12/21 20:34:35;;;;;;;15.75;8.77;;;;;;;;;;5135706;27;20045;-86
2021/12/21 20:37:02;;;;;;;19.00;10.55;;;;;;;;;;5135611;27;20035;-87
2021/12/21 20:39:28;;;;;;;14.43;10.35;;;;;;;;;;5117097;27;20035;-88
2021/12/21 20:41:54;;;;;;;13.43;9.40;;;;;;;;;;5116876;27;20091;-86
2021/12/21 20:44:20;;;;;;;17.42;9.50;;;;;;;;;;5099918;27;20039;-87
2021/12/21 20:46:46;;;;;;;15.43;9.57;;;;;;;;;;5116979;27;20043;-86
2021/12/21 20:49:12;;;;;;;17.17;10.52;;;;;;;;;;5135287;27;20043;-86
2021/12/21 20:51:38;;;;;;;17.17;9.38;;;;;;;;;;5117204;27;20612;-86
2021/12/21 20:54:04;;;;;;;16.17;10.07;;;;;;;;;;5134936;27;20047;-86
2021/12/21 20:56:32;;;;;;;20.52;11.27;;;;;;;;;;5116918;27;20047;-85
2021/12/21 20:58:58;;;;;;;18.92;10.57;;;;;;;;;;5117573;27;20043;-86
2021/12/21 21:01:24;;;;;;;15.65;9.70;;;;;;;;;;5116636;27;20035;-85
2021/12/21 21:03:50;;;;;;;16.00;9.27;;;;;;;;;;5116085;28;20122;-88
2021/12/21 21:06:17;;;;;;;20.90;10.68;;;;;;;;;;5134916;27;20039;-87
2021/12/21 21:08:43;;;;;;;15.93;9.68;;;;;;;;;;5116336;27;20077;-88
2021/12/21 21:11:10;;;;;;;14.85;9.48;;;;;;;;;;5099456;27;20091;-88
2021/12/21 21:13:37;;;;;;;14.73;9.50;;;;;;;;;;5134770;27;20114;-86
2021/12/21 21:16:04;;;;;;;17.27;10.20;;;;;;;;;;5116359;27;20054;-86
2021/12/21 21:18:29;;;;;;;16.75;10.18;;;;;;;;;;5116286;27;20556;-86
2021/12/21 21:20:56;;;;;;;14.55;10.05;;;;;;;;;;5116052;27;20126;-86
2021/12/21 21:23:22;;;;;;;16.90;9.48;;;;;;;;;;5115913;27;20039;-86
2021/12/21 21:25:48;;;;;;;17.10;9.82;;;;;;;;;;5134552;27;20056;-87
2021/12/21 21:28:15;;;;;;;18.35;10.35;;;;;;;;;;5116116;27;20099;-86
2021/12/21 21:30:41;;;;;;;20.75;10.55;;;;;;;;;;5134648;27;20394;-86
2021/12/21 21:33:07;;;;;;;22.08;10.95;;;;;;;;;;5116163;27;20047;-86
2021/12/21 21:35:33;;;;;;;14.73;10.48;;;;;;;;;;5104284;28;20040;-86
